createdAt,value
2018-09-04T00:00:45.288Z,18.60
2018-09-04T00:03:14.271Z,18.60
2018-09-04T00:05:43.237Z,18.50
2018-09-04T00:08:12.342Z,18.50
2018-09-04T00:10:41.424Z,18.50
2018-09-04T00:13:10.416Z,18.40
2018-09-04T00:15:39.371Z,18.40
2018-09-04T00:18:08.488Z,18.40
2018-09-04T00:20:37.523Z,18.30
2018-09-04T00:23:06.607Z,18.30
2018-09-04T00:25:35.577Z,18.30
2018-09-04T00:28:04.923Z,18.20
2018-09-04T00:30:34.319Z,18.20
2018-09-04T00:33:03.826Z,18.20
2018-09-04T00:35:32.774Z,18.10
2018-09-04T00:38:01.773Z,18.10
2018-09-04T00:40:30.695Z,18.10
2018-09-04T00:42:59.649Z,18.10
2018-09-04T00:45:28.643Z,18.00
2018-09-04T00:47:57.765Z,18.00
2018-09-04T00:50:26.841Z,18.00
2018-09-04T00:52:55.825Z,18.00
2018-09-04T00:55:25.111Z,17.90
2018-09-04T00:57:54.115Z,17.90
2018-09-04T01:00:25.450Z,17.90
2018-09-04T01:02:54.915Z,17.90
2018-09-04T01:05:24.154Z,17.90
2018-09-04T01:07:53.207Z,17.80
2018-09-04T01:10:22.280Z,17.80
2018-09-04T01:12:51.894Z,17.80
2018-09-04T01:15:21.178Z,17.70
2018-09-04T01:17:50.166Z,17.70
2018-09-04T01:20:19.117Z,17.70
2018-09-04T01:22:48.108Z,17.60
2018-09-04T01:25:17.016Z,17.60
2018-09-04T01:27:45.987Z,17.60
2018-09-04T01:30:15.222Z,17.60
2018-09-04T01:32:44.372Z,17.50
2018-09-04T01:35:13.330Z,17.50
2018-09-04T01:37:42.410Z,17.50
2018-09-04T01:40:11.342Z,17.40
2018-09-04T01:42:40.337Z,17.40
2018-09-04T01:45:09.270Z,17.40
2018-09-04T01:47:38.230Z,17.40
2018-09-04T01:50:07.542Z,17.30
2018-09-04T01:52:36.568Z,17.30
2018-09-04T01:55:05.935Z,17.30
2018-09-04T01:57:34.998Z,17.30
2018-09-04T02:00:04.093Z,17.20
2018-09-04T02:02:33.152Z,17.20
2018-09-04T02:05:02.106Z,17.20
2018-09-04T02:07:31.048Z,17.20
2018-09-04T02:10:00.029Z,17.20
2018-09-04T02:12:29.165Z,17.10
2018-09-04T02:14:58.131Z,17.10
2018-09-04T02:17:27.262Z,17.10
2018-09-04T02:19:56.213Z,17.00
2018-09-04T02:22:25.186Z,17.00
2018-09-04T02:24:54.199Z,17.00
2018-09-04T02:27:23.157Z,17.00
2018-09-04T02:29:52.101Z,16.90
2018-09-04T02:32:21.092Z,16.90
2018-09-04T02:34:50.086Z,16.90
2018-09-04T02:37:19.183Z,16.90
2018-09-04T02:39:48.266Z,16.80
2018-09-04T02:42:17.186Z,16.80
2018-09-04T02:44:46.179Z,16.80
2018-09-04T02:47:15.150Z,16.80
2018-09-04T02:49:44.233Z,16.80
2018-09-04T02:52:13.247Z,16.80
2018-09-04T02:54:42.228Z,16.80
2018-09-04T02:57:11.210Z,16.80
2018-09-04T02:59:40.251Z,16.80
2018-09-04T03:02:09.315Z,16.80
2018-09-04T03:04:38.247Z,16.80
2018-09-04T03:07:07.548Z,16.80
2018-09-04T03:09:36.556Z,16.80
2018-09-04T03:12:05.961Z,16.90
2018-09-04T03:14:34.918Z,17.00
2018-09-04T03:17:03.907Z,17.00
2018-09-04T03:19:32.870Z,17.10
2018-09-04T03:22:01.844Z,17.10
2018-09-04T03:24:30.968Z,17.10
2018-09-04T03:27:00.068Z,17.10
2018-09-04T03:29:29.039Z,17.10
2018-09-04T03:31:58.004Z,17.10
2018-09-04T03:34:26.984Z,17.10
2018-09-04T03:36:55.965Z,17.20
2018-09-04T03:39:24.950Z,17.10
2018-09-04T03:41:53.930Z,17.10
2018-09-04T03:44:23.104Z,17.20
2018-09-04T03:46:52.226Z,17.20
2018-09-04T03:49:21.170Z,17.30
2018-09-04T03:51:50.210Z,17.40
2018-09-04T03:54:19.163Z,17.40
2018-09-04T03:56:48.518Z,17.40
2018-09-04T03:59:17.547Z,17.40
2018-09-04T04:01:46.502Z,17.40
2018-09-04T04:04:15.561Z,17.40
2018-09-04T04:06:44.586Z,17.40
2018-09-04T04:09:13.648Z,17.40
2018-09-04T04:11:42.662Z,17.40
2018-09-04T04:14:11.603Z,17.40
2018-09-04T04:16:40.668Z,17.40
2018-09-04T04:19:09.605Z,17.40
2018-09-04T04:21:38.589Z,17.40
2018-09-04T04:24:07.545Z,17.30
2018-09-04T04:26:36.812Z,17.20
2018-09-04T04:29:06.339Z,17.20
2018-09-04T04:31:35.401Z,17.10
2018-09-04T04:34:04.394Z,17.00
2018-09-04T04:36:33.413Z,17.00
2018-09-04T04:39:02.454Z,17.00
2018-09-04T04:41:31.615Z,17.00
2018-09-04T04:44:00.827Z,17.00
2018-09-04T04:46:29.807Z,16.90
2018-09-04T04:48:58.781Z,16.90
2018-09-04T04:51:27.756Z,16.90
2018-09-04T04:53:56.715Z,16.90
2018-09-04T04:56:25.719Z,16.90
2018-09-04T04:58:54.837Z,16.90
2018-09-04T05:01:23.844Z,16.90
2018-09-04T05:03:53.167Z,16.90
2018-09-04T05:06:22.245Z,16.90
2018-09-04T05:08:51.353Z,17.00
2018-09-04T05:11:20.384Z,17.00
2018-09-04T05:13:49.743Z,17.00
2018-09-04T05:16:18.911Z,17.00
2018-09-04T05:18:48.243Z,17.00
2018-09-04T05:21:17.190Z,17.00
2018-09-04T05:23:46.133Z,17.10
2018-09-04T05:26:15.161Z,17.10
2018-09-04T05:28:44.189Z,17.00
2018-09-04T05:31:13.286Z,17.00
2018-09-04T05:33:43.981Z,17.00
2018-09-04T05:36:13.928Z,16.90
2018-09-04T05:38:43.038Z,16.90
2018-09-04T05:41:12.127Z,17.00
2018-09-04T05:43:52.515Z,17.00
2018-09-04T05:46:43.833Z,17.00
2018-09-04T05:49:14.221Z,17.10
2018-09-04T05:51:43.297Z,17.10
2018-09-04T05:54:12.299Z,17.10
2018-09-04T05:56:41.394Z,17.20
2018-09-04T05:59:10.374Z,17.20
2018-09-04T06:01:39.551Z,17.20
2018-09-04T06:04:08.525Z,17.30
2018-09-04T06:06:37.694Z,17.40
2018-09-04T06:09:06.821Z,17.50
2018-09-04T06:11:35.950Z,17.50
2018-09-04T06:14:04.941Z,17.60
2018-09-04T06:16:33.944Z,17.70
2018-09-04T06:19:02.934Z,17.80
2018-09-04T06:21:31.952Z,17.80
2018-09-04T06:24:01.414Z,17.90
2018-09-04T06:26:30.524Z,18.00
2018-09-04T06:28:59.616Z,18.10
2018-09-04T06:31:28.603Z,18.10
2018-09-04T06:33:57.633Z,18.10
2018-09-04T06:36:27.332Z,18.20
2018-09-04T06:38:56.583Z,18.20
2018-09-04T06:41:25.716Z,18.30
2018-09-04T06:43:54.694Z,18.40
2018-09-04T06:46:23.758Z,18.50
2018-09-04T06:48:52.902Z,18.70
2018-09-04T06:51:21.940Z,18.80
2018-09-04T06:53:50.953Z,18.80
2018-09-04T06:56:19.941Z,18.90
2018-09-04T06:58:49.267Z,18.90
2018-09-04T07:01:18.199Z,18.90
2018-09-04T07:03:47.353Z,18.90
2018-09-04T07:06:16.442Z,18.90
2018-09-04T07:08:45.513Z,19.00
2018-09-04T07:11:14.463Z,19.00
2018-09-04T07:13:43.473Z,19.00
2018-09-04T07:16:12.593Z,19.00
2018-09-04T07:18:41.568Z,19.10
2018-09-04T07:21:10.840Z,19.20
2018-09-04T07:23:39.858Z,19.20
2018-09-04T07:26:09.046Z,19.30
2018-09-04T07:28:38.019Z,19.50
2018-09-04T07:31:07.280Z,19.70
2018-09-04T07:33:36.302Z,19.80
2018-09-04T07:36:06.153Z,19.90
2018-09-04T07:38:35.092Z,20.00
2018-09-04T07:41:04.071Z,20.00
2018-09-04T07:43:33.053Z,20.00
2018-09-04T07:46:02.093Z,20.00
2018-09-04T07:48:31.467Z,19.90
2018-09-04T07:51:00.451Z,19.70
2018-09-04T07:53:29.450Z,19.80
2018-09-04T07:55:58.431Z,19.90
2018-09-04T07:58:27.764Z,19.90
2018-09-04T08:00:56.793Z,20.00
2018-09-04T08:03:25.882Z,20.00
2018-09-04T08:05:54.968Z,20.00
2018-09-04T08:08:24.024Z,20.00
2018-09-04T08:10:53.020Z,20.00
2018-09-04T08:13:22.098Z,20.10
2018-09-04T08:15:51.439Z,20.20
2018-09-04T08:18:20.483Z,20.20
2018-09-04T08:20:49.595Z,20.20
2018-09-04T08:23:18.768Z,20.20
2018-09-04T08:25:47.734Z,20.40
2018-09-04T08:28:16.740Z,20.40
2018-09-04T08:30:45.730Z,20.50
2018-09-04T08:33:14.860Z,20.60
2018-09-04T08:35:44.108Z,20.60
2018-09-04T08:38:13.132Z,20.70
2018-09-04T08:40:42.091Z,20.70
2018-09-04T08:43:11.121Z,20.70
2018-09-04T08:45:40.081Z,20.70
2018-09-04T08:48:14.479Z,20.80
2018-09-04T08:50:43.554Z,20.90
2018-09-04T08:53:12.680Z,21.00
2018-09-04T08:55:41.847Z,21.00
2018-09-04T08:58:10.959Z,21.10
2018-09-04T09:00:40.239Z,21.10
2018-09-04T09:03:09.517Z,21.20
2018-09-04T09:05:38.675Z,21.20
2018-09-04T09:08:07.936Z,21.30
2018-09-04T09:10:36.919Z,21.30
2018-09-04T09:13:05.731Z,21.30
2018-09-04T09:15:34.715Z,21.40
2018-09-04T09:18:03.744Z,21.40
2018-09-04T09:20:33.240Z,21.50
2018-09-04T09:23:02.234Z,21.50
2018-09-04T09:25:30.905Z,21.60
2018-09-04T09:28:00.453Z,21.60
2018-09-04T09:30:29.452Z,21.70
2018-09-04T09:32:58.426Z,21.80
2018-09-04T09:35:27.398Z,21.80
2018-09-04T09:37:56.432Z,21.90
2018-09-04T09:40:25.486Z,22.00
2018-09-04T09:42:54.195Z,22.00
2018-09-04T09:45:23.302Z,22.10
2018-09-04T09:47:52.762Z,22.20
2018-09-04T09:50:21.958Z,22.20
2018-09-04T09:52:50.677Z,22.20
2018-09-04T09:55:19.866Z,22.20
2018-09-04T09:57:49.042Z,22.30
2018-09-04T10:00:23.506Z,22.40
2018-09-04T10:02:57.636Z,22.50
2018-09-04T10:05:26.295Z,22.50
2018-09-04T10:07:55.362Z,22.50
2018-09-04T10:10:24.121Z,22.60
2018-09-04T10:12:53.324Z,22.60
2018-09-04T10:15:22.484Z,22.70
2018-09-04T10:17:51.170Z,22.80
2018-09-04T10:20:19.895Z,22.90
2018-09-04T10:22:48.879Z,23.00
2018-09-04T10:25:17.569Z,23.10
2018-09-04T10:27:46.559Z,23.20
2018-09-04T10:30:15.776Z,23.30
2018-09-04T10:32:48.713Z,23.30
2018-09-04T10:35:17.780Z,23.30
2018-09-04T10:37:46.654Z,23.40
2018-09-04T10:40:20.755Z,23.50
2018-09-04T10:42:49.392Z,23.60
2018-09-04T10:45:23.836Z,23.60
2018-09-04T10:47:52.937Z,23.70
2018-09-04T10:50:22.165Z,23.80
2018-09-04T10:52:51.444Z,23.90
2018-09-04T10:55:20.169Z,24.10
2018-09-04T10:57:48.905Z,24.20
2018-09-04T11:00:18.205Z,24.30
2018-09-04T11:02:47.095Z,24.40
2018-09-04T11:05:15.853Z,24.60
2018-09-04T11:07:44.539Z,24.80
2018-09-04T11:10:13.243Z,25.10
2018-09-04T11:12:41.911Z,25.30
2018-09-04T11:15:10.643Z,25.50
2018-09-04T11:17:39.392Z,25.70
2018-09-04T11:20:08.523Z,26.10
2018-09-04T11:22:37.291Z,26.30
2018-09-04T11:25:06.312Z,26.60
2018-09-04T11:27:34.981Z,26.90
2018-09-04T11:30:03.710Z,27.30
2018-09-04T11:32:32.477Z,27.50
2018-09-04T11:35:01.158Z,27.50
2018-09-04T11:37:29.830Z,27.30
2018-09-04T11:39:58.966Z,27.20
2018-09-04T11:42:28.096Z,27.00
2018-09-04T11:44:57.232Z,26.60
2018-09-04T11:47:25.964Z,26.20
2018-09-04T11:49:54.674Z,25.90
2018-09-04T11:52:23.412Z,25.60
2018-09-04T11:54:52.268Z,25.50
2018-09-04T11:57:21.039Z,25.30
2018-09-04T11:59:50.128Z,25.10
2018-09-04T12:02:27.510Z,25.10
2018-09-04T12:04:56.182Z,25.20
2018-09-04T12:07:24.891Z,25.30
2018-09-04T12:09:54.087Z,25.50
2018-09-04T12:12:28.817Z,25.70
2018-09-04T12:14:57.855Z,25.90
2018-09-04T12:17:26.965Z,26.00
2018-09-04T12:20:04.421Z,26.10
2018-09-04T12:22:33.210Z,26.20
2018-09-04T12:25:01.903Z,26.30
2018-09-04T12:27:30.583Z,26.40
2018-09-04T12:29:59.504Z,26.50
2018-09-04T12:32:28.199Z,26.50
2018-09-04T12:34:56.861Z,26.60
2018-09-04T12:37:25.641Z,26.70
2018-09-04T12:39:57.412Z,26.90
2018-09-04T12:42:28.460Z,27.00
2018-09-04T12:44:59.195Z,27.10
2018-09-04T12:47:27.958Z,27.20
2018-09-04T12:49:57.373Z,27.20
2018-09-04T12:52:26.178Z,27.40
2018-09-04T12:54:55.242Z,27.40
2018-09-04T12:57:23.925Z,27.60
2018-09-04T12:59:52.697Z,27.90
2018-09-04T13:02:21.679Z,28.10
2018-09-04T13:04:50.470Z,28.10
2018-09-04T13:07:19.141Z,27.90
2018-09-04T13:09:47.802Z,27.90
2018-09-04T13:12:16.524Z,27.80
2018-09-04T13:14:45.522Z,27.80
2018-09-04T13:17:14.239Z,27.90
2018-09-04T13:19:43.364Z,27.70
2018-09-04T13:22:12.564Z,27.50
2018-09-04T13:24:41.326Z,27.20
2018-09-04T13:27:10.279Z,26.90
2018-09-04T13:29:39.018Z,26.70
2018-09-04T13:32:07.998Z,26.70
2018-09-04T13:34:36.787Z,26.50
2018-09-04T13:37:05.482Z,26.40
2018-09-04T13:39:34.272Z,26.40
2018-09-04T13:42:03.183Z,26.50
2018-09-04T13:44:32.148Z,26.70
2018-09-04T13:47:01.143Z,26.90
2018-09-04T13:49:30.047Z,27.10
2018-09-04T13:51:58.786Z,27.30
2018-09-04T13:54:27.668Z,27.50
2018-09-04T13:56:56.429Z,27.80
2018-09-04T13:59:25.179Z,28.10
2018-09-04T14:01:54.158Z,28.20
2018-09-04T14:04:23.158Z,28.20
2018-09-04T14:06:52.121Z,28.20
2018-09-04T14:09:20.823Z,28.20
2018-09-04T14:11:49.513Z,28.20
2018-09-04T14:14:18.215Z,28.20
2018-09-04T14:16:46.983Z,28.20
2018-09-04T14:19:15.849Z,28.30
2018-09-04T14:21:44.637Z,28.40
2018-09-04T14:24:13.379Z,28.60
2018-09-04T14:26:42.167Z,28.80
2018-09-04T14:29:10.855Z,29.00
2018-09-04T14:31:39.685Z,29.30
2018-09-04T14:34:08.437Z,29.40
2018-09-04T14:36:38.024Z,29.20
2018-09-04T14:39:07.471Z,29.10
2018-09-04T14:41:36.685Z,29.20
2018-09-04T14:44:05.933Z,29.20
2018-09-04T14:46:34.717Z,29.20
2018-09-04T14:49:04.512Z,29.40
2018-09-04T14:51:33.353Z,29.50
2018-09-04T14:54:02.084Z,29.50
2018-09-04T14:56:30.844Z,29.50
2018-09-04T14:58:59.611Z,29.50
2018-09-04T15:01:28.508Z,29.50
2018-09-04T15:03:57.286Z,29.50
2018-09-04T15:06:26.102Z,29.50
2018-09-04T15:08:54.948Z,29.20
2018-09-04T15:11:23.884Z,28.80
2018-09-04T15:13:52.606Z,28.70
2018-09-04T15:16:21.646Z,28.90
2018-09-04T15:18:50.507Z,29.00
2018-09-04T15:21:19.953Z,29.20
2018-09-04T15:23:48.773Z,29.20
2018-09-04T15:26:17.460Z,29.40
2018-09-04T15:28:46.224Z,29.50
2018-09-04T15:31:14.964Z,29.60
2018-09-04T15:33:43.616Z,29.60
2018-09-04T15:36:12.358Z,29.50
2018-09-04T15:38:41.204Z,29.50
2018-09-04T15:41:10.002Z,29.40
2018-09-04T15:43:38.702Z,29.40
2018-09-04T15:46:07.853Z,29.40
2018-09-04T15:48:36.531Z,29.40
2018-09-04T15:51:06.364Z,29.40
2018-09-04T15:53:35.256Z,29.30
2018-09-04T15:56:04.223Z,29.20
2018-09-04T15:58:32.850Z,29.00
2018-09-04T16:01:01.729Z,29.00
2018-09-04T16:03:30.366Z,28.80
2018-09-04T16:05:59.112Z,28.80
2018-09-04T16:08:27.856Z,28.80
2018-09-04T16:10:56.896Z,28.80
2018-09-04T16:13:25.640Z,28.70
2018-09-04T16:15:54.459Z,28.50
2018-09-04T16:18:23.620Z,28.20
2018-09-04T16:20:52.512Z,28.10
2018-09-04T16:23:21.154Z,27.80
2018-09-04T16:25:49.988Z,27.60
2018-09-04T16:28:18.678Z,27.30
2018-09-04T16:30:47.308Z,27.10
2018-09-04T16:33:15.962Z,26.90
2018-09-04T16:35:44.660Z,26.80
2018-09-04T16:38:13.479Z,26.60
2018-09-04T16:40:42.290Z,26.50
2018-09-04T16:43:11.127Z,26.30
2018-09-04T16:45:39.993Z,26.20
2018-09-04T16:48:08.793Z,26.00
2018-09-04T16:50:37.663Z,25.90
2018-09-04T16:53:06.371Z,25.80
2018-09-04T16:55:35.033Z,25.70
2018-09-04T16:58:03.841Z,25.60
2018-09-04T17:00:32.663Z,25.40
2018-09-04T17:03:01.420Z,25.30
2018-09-04T17:05:30.107Z,25.20
2018-09-04T17:07:58.858Z,25.10
2018-09-04T17:10:27.599Z,25.00
2018-09-04T17:12:56.382Z,25.00
2018-09-04T17:15:25.275Z,24.80
2018-09-04T17:17:54.080Z,24.70
2018-09-04T17:20:22.753Z,24.60
2018-09-04T17:22:51.460Z,24.60
2018-09-04T17:25:20.106Z,24.50
2018-09-04T17:27:48.766Z,24.40
2018-09-04T17:30:17.780Z,24.30
2018-09-04T17:32:46.415Z,24.30
2018-09-04T17:35:15.164Z,24.10
2018-09-04T17:37:43.841Z,24.00
2018-09-04T17:40:12.548Z,23.90
2018-09-04T17:42:41.378Z,23.80
2018-09-04T17:45:10.072Z,23.70
2018-09-04T17:47:38.923Z,23.60
2018-09-04T17:50:07.910Z,23.50
2018-09-04T17:52:37.005Z,23.40
2018-09-04T17:55:38.836Z,23.30
2018-09-04T17:58:07.636Z,23.20
2018-09-04T18:00:36.725Z,23.10
2018-09-04T18:03:05.771Z,23.00
2018-09-04T18:05:34.604Z,22.90
2018-09-04T18:08:03.264Z,22.80
2018-09-04T18:10:31.956Z,22.80
2018-09-04T18:13:00.634Z,22.70
2018-09-04T18:15:29.627Z,22.60
2018-09-04T18:18:01.499Z,22.60
2018-09-04T18:20:30.223Z,22.50
2018-09-04T18:22:59.020Z,22.40
2018-09-04T18:25:27.775Z,22.40
2018-09-04T18:27:56.506Z,22.30
2018-09-04T18:30:26.284Z,22.30
2018-09-04T18:32:55.300Z,22.20
2018-09-04T18:35:24.234Z,22.20
2018-09-04T18:37:53.227Z,22.10
2018-09-04T18:40:22.066Z,22.00
2018-09-04T18:42:50.749Z,22.00
2018-09-04T18:45:31.108Z,21.90
2018-09-04T18:47:59.772Z,21.90
2018-09-04T18:50:28.554Z,21.80
2018-09-04T18:52:57.466Z,21.80
2018-09-04T18:55:26.201Z,21.80
2018-09-04T18:57:55.370Z,21.70
2018-09-04T19:00:24.763Z,21.70
2018-09-04T19:02:53.423Z,21.60
2018-09-04T19:05:22.232Z,21.60
2018-09-04T19:07:51.561Z,21.50
2018-09-04T19:10:20.649Z,21.40
2018-09-04T19:12:49.950Z,21.40
2018-09-04T19:15:18.917Z,21.30
2018-09-04T19:17:47.853Z,21.20
2018-09-04T19:20:17.025Z,21.20
2018-09-04T19:22:45.965Z,21.10
2018-09-04T19:25:14.927Z,21.10
2018-09-04T19:27:43.981Z,21.00
2018-09-04T19:30:12.874Z,21.00
2018-09-04T19:32:41.829Z,20.90
2018-09-04T19:35:10.829Z,20.90
2018-09-04T19:37:40.154Z,20.90
2018-09-04T19:40:10.008Z,20.80
2018-09-04T19:42:39.749Z,20.80
2018-09-04T19:45:09.328Z,20.80
2018-09-04T19:47:38.871Z,20.70
2018-09-04T19:50:09.015Z,20.70
2018-09-04T19:52:38.241Z,20.70
2018-09-04T19:55:09.556Z,20.60
2018-09-04T19:57:39.142Z,20.50
2018-09-04T20:00:09.115Z,20.50
2018-09-04T20:02:38.100Z,20.40
2018-09-04T20:05:08.143Z,20.40
2018-09-04T20:07:37.085Z,20.30
2018-09-04T20:10:07.222Z,20.30
2018-09-04T20:12:36.186Z,20.20
2018-09-04T20:15:05.198Z,20.20
2018-09-04T20:17:34.262Z,20.20
2018-09-04T20:20:03.270Z,20.20
2018-09-04T20:22:32.182Z,20.20
2018-09-04T20:25:01.178Z,20.10
2018-09-04T20:27:30.168Z,20.10
2018-09-04T20:29:59.103Z,20.10
2018-09-04T20:32:28.334Z,20.00
2018-09-04T20:34:57.436Z,20.00
2018-09-04T20:37:26.662Z,19.90
2018-09-04T20:39:55.636Z,19.80
2018-09-04T20:42:24.952Z,19.80
2018-09-04T20:44:54.031Z,19.80
2018-09-04T20:47:23.017Z,19.70
2018-09-04T20:49:52.066Z,19.70
2018-09-04T20:52:20.983Z,19.70
2018-09-04T20:54:49.912Z,19.70
2018-09-04T20:57:40.574Z,19.60
2018-09-04T21:00:26.497Z,19.60
2018-09-04T21:03:06.951Z,19.50
2018-09-04T21:05:47.251Z,19.50
2018-09-04T21:08:20.997Z,19.40
2018-09-04T21:10:50.840Z,19.40
2018-09-04T21:13:20.201Z,19.40
2018-09-04T21:15:49.197Z,19.30
2018-09-04T21:18:18.163Z,19.30
2018-09-04T21:20:47.151Z,19.30
2018-09-04T21:23:16.303Z,19.30
2018-09-04T21:25:45.300Z,19.30
2018-09-04T21:28:14.213Z,19.30
2018-09-04T21:30:43.157Z,19.30
2018-09-04T21:33:12.197Z,19.30
2018-09-04T21:35:41.127Z,19.40
2018-09-04T21:38:10.115Z,19.40
2018-09-04T21:40:39.051Z,19.40
2018-09-04T21:43:08.155Z,19.40
2018-09-04T21:45:37.077Z,19.50
2018-09-04T21:48:06.041Z,19.50
2018-09-04T21:50:34.963Z,19.50
2018-09-04T21:53:03.930Z,19.40
2018-09-04T21:55:32.889Z,19.40
2018-09-04T21:58:01.813Z,19.50
2018-09-04T22:00:30.859Z,19.50
2018-09-04T22:03:00.203Z,19.50
2018-09-04T22:05:29.231Z,19.40
2018-09-04T22:07:58.235Z,19.50
2018-09-04T22:10:27.798Z,19.40
2018-09-04T22:12:57.000Z,19.30
2018-09-04T22:15:25.986Z,19.30
2018-09-04T22:17:54.949Z,19.30
2018-09-04T22:20:24.174Z,19.20
2018-09-04T22:22:53.252Z,19.20
2018-09-04T22:25:22.274Z,19.10
2018-09-04T22:27:51.584Z,19.10
2018-09-04T22:30:21.302Z,19.00
2018-09-04T22:32:50.272Z,19.00
2018-09-04T22:35:19.206Z,19.00
2018-09-04T22:37:48.170Z,19.00
2018-09-04T22:40:17.109Z,18.90
2018-09-04T22:42:46.115Z,18.90
2018-09-04T22:45:15.101Z,18.90
2018-09-04T22:47:44.042Z,18.90
2018-09-04T22:50:18.280Z,18.80
2018-09-04T22:52:47.273Z,18.80
2018-09-04T22:55:16.305Z,18.80
2018-09-04T22:57:45.237Z,18.70
2018-09-04T23:00:15.488Z,18.80
2018-09-04T23:02:44.851Z,18.80
2018-09-04T23:05:14.249Z,18.80
2018-09-04T23:07:43.221Z,18.80
2018-09-04T23:10:12.536Z,18.80
2018-09-04T23:12:41.477Z,18.80
2018-09-04T23:15:10.607Z,18.80
2018-09-04T23:17:39.561Z,18.70
2018-09-04T23:20:08.661Z,18.70
2018-09-04T23:22:37.615Z,18.70
2018-09-04T23:25:06.617Z,18.70
2018-09-04T23:27:35.716Z,18.60
2018-09-04T23:30:05.419Z,18.60
2018-09-04T23:32:34.375Z,18.70
2018-09-04T23:35:03.777Z,18.70
2018-09-04T23:37:32.745Z,18.70
2018-09-04T23:40:01.762Z,18.70
2018-09-04T23:42:32.533Z,18.70
2018-09-04T23:45:02.957Z,18.70
2018-09-04T23:47:31.903Z,18.70
2018-09-04T23:50:00.860Z,18.60
2018-09-04T23:52:29.898Z,18.50
2018-09-04T23:54:58.854Z,18.40
2018-09-04T23:57:27.901Z,18.30
2018-09-04T23:59:56.853Z,18.20
